createdAt,value
2018-12-11T00:00:37.753Z,38.43
2018-12-11T00:03:04.392Z,34.80
2018-12-11T00:05:31.068Z,24.10
2018-12-11T00:07:57.713Z,32.27
2018-12-11T00:10:30.445Z,25.70
2018-12-11T00:12:57.578Z,28.70
2018-12-11T00:15:24.527Z,40.07
2018-12-11T00:17:52.409Z,32.20
2018-12-11T00:20:20.535Z,31.03
2018-12-11T00:22:47.310Z,30.97
2018-12-11T00:27:31.271Z,34.60
2018-12-11T00:29:58.636Z,38.43
2018-12-11T00:32:26.507Z,32.53
2018-12-11T00:35:42.374Z,28.40
2018-12-11T00:38:09.354Z,27.17
2018-12-11T00:40:36.008Z,35.33
2018-12-11T00:43:03.895Z,29.57
2018-12-11T00:45:30.544Z,32.77
2018-12-11T00:47:57.205Z,35.87
2018-12-11T00:50:24.694Z,30.20
2018-12-11T00:52:51.338Z,32.20
2018-12-11T00:55:18.272Z,28.27
2018-12-11T00:57:44.953Z,29.23
2018-12-11T01:00:11.601Z,29.23
2018-12-11T01:02:38.259Z,38.47
2018-12-11T01:05:05.481Z,36.73
2018-12-11T01:08:40.270Z,32.80
2018-12-11T01:11:07.122Z,39.77
2018-12-11T01:13:33.189Z,35.33
2018-12-11T01:15:59.407Z,36.20
2018-12-11T01:18:25.950Z,30.13
2018-12-11T01:20:51.868Z,31.43
2018-12-11T01:23:18.102Z,36.97
2018-12-11T01:25:44.363Z,37.90
2018-12-11T01:28:10.552Z,30.07
2018-12-11T01:30:36.825Z,31.17
2018-12-11T01:33:03.389Z,34.63
2018-12-11T01:35:29.697Z,39.23
2018-12-11T01:37:57.950Z,30.60
2018-12-11T01:40:24.614Z,33.40
2018-12-11T01:42:51.246Z,25.00
2018-12-11T01:45:17.852Z,33.53
2018-12-11T01:47:48.754Z,34.00
2018-12-11T01:50:14.827Z,31.23
2018-12-11T01:52:41.862Z,31.10
2018-12-11T01:55:08.328Z,27.70
2018-12-11T01:57:34.310Z,30.00
2018-12-11T02:00:00.610Z,37.03
2018-12-11T02:02:30.499Z,37.53
2018-12-11T02:04:56.687Z,25.87
2018-12-11T02:07:23.021Z,30.97
2018-12-11T02:09:49.172Z,26.83
2018-12-11T02:12:17.418Z,34.40
2018-12-11T02:14:43.698Z,35.17
2018-12-11T02:17:10.530Z,30.40
2018-12-11T02:19:37.313Z,38.50
2018-12-11T02:22:03.531Z,37.27
2018-12-11T02:24:29.640Z,33.07
2018-12-11T02:26:55.611Z,28.47
2018-12-11T02:29:22.378Z,35.17
2018-12-11T02:31:49.339Z,21.37
2018-12-11T02:34:16.776Z,28.63
2018-12-11T02:36:42.958Z,27.67
2018-12-11T02:39:09.524Z,29.43
2018-12-11T02:41:35.865Z,27.20
2018-12-11T02:44:02.114Z,31.43
2018-12-11T02:46:29.181Z,23.97
2018-12-11T02:48:55.344Z,25.87
2018-12-11T02:51:21.593Z,23.30
2018-12-11T02:53:48.386Z,25.87
2018-12-11T02:56:14.464Z,28.07
2018-12-11T02:58:40.665Z,33.90
2018-12-11T03:01:07.147Z,30.80
2018-12-11T03:03:33.122Z,28.37
2018-12-11T03:05:59.343Z,27.47
2018-12-11T03:08:25.678Z,27.57
2018-12-11T03:10:51.851Z,26.07
2018-12-11T03:13:18.055Z,27.33
2018-12-11T03:15:44.552Z,33.37
2018-12-11T03:18:10.471Z,27.63
2018-12-11T03:20:36.750Z,30.87
2018-12-11T03:23:03.436Z,26.93
2018-12-11T03:25:29.614Z,27.33
2018-12-11T03:27:55.795Z,29.37
2018-12-11T03:30:22.085Z,31.13
2018-12-11T03:32:48.280Z,31.23
2018-12-11T03:35:14.487Z,28.20
2018-12-11T03:37:41.305Z,33.00
2018-12-11T03:40:08.600Z,31.67
2018-12-11T03:42:34.864Z,37.40
2018-12-11T03:45:01.105Z,37.90
2018-12-11T03:47:27.340Z,36.57
2018-12-11T03:49:53.501Z,37.63
2018-12-11T03:52:22.372Z,38.43
2018-12-11T03:54:48.405Z,41.27
2018-12-11T03:57:14.672Z,31.33
2018-12-11T03:59:40.919Z,32.90
2018-12-11T04:02:07.105Z,38.37
2018-12-11T04:04:33.400Z,43.30
2018-12-11T04:06:59.526Z,37.93
2018-12-11T04:09:25.789Z,38.37
2018-12-11T04:11:52.646Z,33.27
2018-12-11T04:14:19.653Z,37.37
2018-12-11T04:16:45.720Z,35.77
2018-12-11T04:19:11.952Z,35.97
2018-12-11T04:21:38.232Z,33.93
2018-12-11T04:24:04.872Z,35.67
2018-12-11T04:26:31.085Z,35.27
2018-12-11T04:28:57.532Z,34.97
2018-12-11T04:31:23.481Z,32.97
2018-12-11T04:33:49.754Z,31.87
2018-12-11T04:36:16.344Z,39.43
2018-12-11T04:38:42.597Z,40.17
2018-12-11T04:41:08.807Z,30.83
2018-12-11T04:43:35.301Z,31.97
2018-12-11T04:46:01.277Z,37.67
2018-12-11T04:48:27.529Z,40.17
2018-12-11T04:50:54.594Z,38.33
2018-12-11T04:53:20.764Z,37.17
2018-12-11T04:55:47.013Z,36.90
2018-12-11T04:58:13.821Z,36.60
2018-12-11T05:00:39.884Z,37.17
2018-12-11T05:03:06.093Z,38.50
2018-12-11T05:05:32.372Z,47.03
2018-12-11T05:07:58.221Z,39.10
2018-12-11T05:10:24.401Z,41.90
2018-12-11T05:12:50.990Z,36.17
2018-12-11T05:15:17.253Z,38.73
2018-12-11T05:17:43.464Z,35.73
2018-12-11T05:20:09.742Z,37.17
2018-12-11T05:22:35.920Z,39.67
2018-12-11T05:25:02.165Z,44.47
2018-12-11T05:27:28.836Z,43.03
2018-12-11T05:29:55.033Z,37.57
2018-12-11T05:32:21.255Z,36.23
2018-12-11T05:34:47.560Z,38.07
2018-12-11T05:37:13.834Z,38.57
2018-12-11T05:39:39.946Z,35.57
2018-12-11T05:42:06.763Z,48.00
2018-12-11T05:44:32.802Z,47.87
2018-12-11T05:46:59.020Z,37.30
2018-12-11T05:49:25.301Z,37.03
2018-12-11T05:51:51.531Z,42.33
2018-12-11T05:54:17.731Z,35.37
2018-12-11T05:56:44.584Z,33.23
2018-12-11T05:59:10.578Z,31.93
2018-12-11T06:01:36.836Z,36.47
2018-12-11T06:04:03.090Z,41.17
2018-12-11T06:06:29.279Z,41.53
2018-12-11T06:08:55.497Z,33.27
2018-12-11T06:11:22.184Z,30.07
2018-12-11T06:13:48.431Z,30.10
2018-12-11T06:16:14.840Z,28.47
2018-12-11T06:18:40.938Z,34.30
2018-12-11T06:21:07.039Z,30.70
2018-12-11T06:23:33.286Z,38.87
2018-12-11T06:25:59.561Z,28.77
2018-12-11T06:28:25.744Z,30.60
2018-12-11T06:30:51.960Z,36.27
2018-12-11T06:33:18.475Z,32.20
2018-12-11T06:35:44.464Z,35.53
2018-12-11T06:38:10.646Z,32.17
2018-12-11T06:40:36.923Z,36.97
2018-12-11T06:43:09.639Z,40.47
2018-12-11T06:45:36.105Z,36.07
2018-12-11T06:48:02.156Z,43.80
2018-12-11T06:50:29.207Z,28.67
2018-12-11T06:52:55.440Z,42.17
2018-12-11T06:55:22.265Z,34.27
2018-12-11T06:57:49.526Z,35.13
2018-12-11T07:00:15.696Z,38.17
2018-12-11T07:02:42.550Z,43.80
2018-12-11T07:05:08.576Z,44.33
2018-12-11T07:07:34.442Z,42.53
2018-12-11T07:10:00.887Z,35.63
2018-12-11T07:12:26.866Z,33.07
2018-12-11T07:14:53.097Z,35.10
2018-12-11T07:17:19.860Z,34.37
2018-12-11T07:19:45.957Z,33.90
2018-12-11T07:22:12.184Z,33.83
2018-12-11T07:24:38.454Z,30.70
2018-12-11T07:27:04.632Z,31.23
2018-12-11T07:29:30.862Z,39.77
2018-12-11T07:31:57.152Z,31.50
2018-12-11T07:34:23.325Z,34.73
2018-12-11T07:36:49.587Z,29.90
2018-12-11T07:39:15.834Z,36.63
2018-12-11T07:41:42.124Z,32.97
2018-12-11T07:44:08.282Z,41.17
2018-12-11T07:46:34.784Z,41.40
2018-12-11T07:49:00.699Z,41.10
2018-12-11T07:51:26.977Z,39.73
2018-12-11T07:53:53.245Z,50.70
2018-12-11T07:56:19.374Z,47.57
2018-12-11T07:58:45.673Z,46.33
2018-12-11T08:01:11.882Z,52.30
2018-12-11T08:03:38.052Z,49.73
2018-12-11T08:06:04.331Z,46.27
2018-12-11T08:08:30.705Z,43.57
2018-12-11T08:10:56.775Z,54.17
2018-12-11T08:13:23.012Z,53.10
2018-12-11T08:15:49.804Z,49.27
2018-12-11T08:18:15.861Z,48.47
2018-12-11T08:20:42.065Z,45.07
2018-12-11T08:23:08.349Z,44.57
2018-12-11T08:25:34.530Z,50.33
2018-12-11T08:28:00.748Z,47.37
2018-12-11T08:30:27.017Z,41.43
2018-12-11T08:32:53.246Z,47.87
2018-12-11T08:35:19.504Z,38.57
2018-12-11T08:37:47.768Z,35.43
2018-12-11T08:40:13.978Z,35.07
2018-12-11T08:42:40.276Z,38.08
2018-12-11T08:45:06.448Z,42.23
2018-12-11T08:47:32.626Z,36.93
2018-12-11T08:49:58.888Z,35.00
2018-12-11T08:52:25.134Z,41.40
2018-12-11T08:54:51.310Z,39.90
2018-12-11T08:57:17.548Z,40.27
2018-12-11T08:59:43.830Z,44.63
2018-12-11T09:02:09.990Z,35.10
2018-12-11T09:04:36.248Z,36.73
2018-12-11T09:07:02.551Z,41.33
2018-12-11T09:09:28.683Z,66.93
2018-12-11T09:11:54.914Z,58.13
2018-12-11T09:14:21.189Z,47.50
2018-12-11T09:16:47.385Z,33.93
2018-12-11T09:19:13.251Z,39.87
2018-12-11T09:21:40.110Z,31.80
2018-12-11T09:24:06.061Z,29.43
2018-12-11T09:26:32.283Z,34.27
2018-12-11T09:28:58.614Z,29.50
2018-12-11T09:31:24.774Z,33.97
2018-12-11T09:33:50.968Z,34.93
2018-12-11T09:36:17.310Z,31.17
2018-12-11T09:38:43.422Z,28.40
2018-12-11T09:41:09.671Z,22.07
2018-12-11T09:43:35.904Z,20.10
2018-12-11T09:46:01.909Z,22.43
2018-12-11T09:48:27.938Z,29.13
2018-12-11T09:50:53.851Z,24.27
2018-12-11T09:53:19.979Z,29.70
2018-12-11T09:55:46.211Z,22.50
2018-12-11T09:58:12.487Z,25.80
2018-12-11T10:00:38.704Z,20.37
2018-12-11T10:03:04.928Z,26.73
2018-12-11T10:05:31.174Z,28.10
2018-12-11T10:07:57.016Z,23.23
2018-12-11T10:10:23.171Z,20.23
2018-12-11T10:12:49.432Z,21.30
2018-12-11T10:15:15.632Z,23.70
2018-12-11T10:17:41.896Z,18.20
2018-12-11T10:20:08.142Z,22.27
2018-12-11T10:22:34.367Z,20.17
2018-12-11T10:25:00.544Z,24.43
2018-12-11T10:27:26.820Z,21.90
2018-12-11T10:29:53.009Z,27.00
2018-12-11T10:32:19.238Z,15.80
2018-12-11T10:34:45.497Z,20.47
2018-12-11T10:37:11.698Z,18.43
2018-12-11T10:39:37.593Z,16.73
2018-12-11T10:42:03.521Z,15.60
2018-12-11T10:44:29.401Z,10.30
2018-12-11T10:46:55.353Z,14.83
2018-12-11T10:49:21.772Z,18.00
2018-12-11T10:51:47.668Z,11.17
2018-12-11T10:54:13.529Z,14.13
2018-12-11T10:56:39.526Z,11.27
2018-12-11T10:59:05.431Z,22.53
2018-12-11T11:01:33.332Z,14.63
2018-12-11T11:03:59.496Z,15.10
2018-12-11T11:06:25.495Z,9.80
2018-12-11T11:08:51.387Z,13.60
2018-12-11T11:11:17.329Z,14.23
2018-12-11T11:13:43.224Z,11.60
2018-12-11T11:16:11.205Z,14.37
2018-12-11T11:18:37.170Z,13.30
2018-12-11T11:25:36.788Z,11.67
2018-12-11T11:28:02.713Z,10.83
2018-12-11T11:30:28.586Z,18.67
2018-12-11T11:32:54.507Z,10.50
2018-12-11T11:38:12.909Z,13.90
2018-12-11T11:40:38.798Z,11.57
2018-12-11T11:43:04.695Z,14.37
2018-12-11T11:45:30.771Z,15.90
2018-12-11T11:47:56.822Z,12.87
2018-12-11T11:50:23.663Z,15.00
2018-12-11T11:52:49.742Z,12.37
2018-12-11T11:55:15.975Z,13.23
2018-12-11T11:57:42.236Z,16.70
2018-12-11T12:00:11.019Z,14.60
2018-12-11T12:02:37.076Z,15.77
2018-12-11T12:05:04.111Z,14.10
2018-12-11T12:07:30.373Z,15.60
2018-12-11T12:09:56.557Z,16.63
2018-12-11T12:12:22.790Z,21.90
2018-12-11T12:14:49.252Z,19.93
2018-12-11T12:17:15.721Z,20.60
2018-12-11T12:19:41.886Z,18.37
2018-12-11T12:22:08.151Z,15.60
2018-12-11T12:24:34.355Z,17.80
2018-12-11T12:27:00.574Z,18.33
2018-12-11T12:29:26.850Z,17.50
2018-12-11T12:31:53.012Z,19.20
2018-12-11T12:34:19.269Z,18.50
2018-12-11T12:36:45.224Z,18.47
2018-12-11T12:39:11.312Z,21.67
2018-12-11T12:41:37.542Z,19.23
2018-12-11T12:44:03.827Z,19.27
2018-12-11T12:46:35.781Z,18.90
2018-12-11T12:49:01.975Z,14.20
2018-12-11T12:51:28.234Z,17.90
2018-12-11T12:53:54.428Z,18.87
2018-12-11T12:56:20.701Z,17.43
2018-12-11T12:58:47.101Z,16.03
2018-12-11T13:01:13.096Z,14.77
2018-12-11T13:03:39.468Z,15.63
2018-12-11T13:06:05.599Z,16.87
2018-12-11T13:08:31.781Z,14.23
2018-12-11T13:10:58.022Z,11.53
2018-12-11T13:13:24.307Z,14.53
2018-12-11T13:15:50.517Z,11.80
2018-12-11T13:18:16.709Z,20.67
2018-12-11T13:20:42.976Z,19.60
2018-12-11T13:23:09.178Z,23.87
2018-12-11T13:25:35.391Z,18.20
2018-12-11T13:28:01.367Z,20.50
2018-12-11T13:30:27.426Z,20.97
2018-12-11T13:32:53.674Z,20.25
2018-12-11T13:35:20.478Z,19.27
2018-12-11T13:37:46.660Z,15.67
2018-12-11T13:40:13.983Z,10.27
2018-12-11T13:42:40.240Z,13.93
2018-12-11T13:45:07.260Z,16.40
2018-12-11T13:47:34.740Z,15.43
2018-12-11T13:50:01.534Z,11.97
2018-12-11T13:52:27.681Z,17.37
2018-12-11T13:54:53.814Z,16.73
2018-12-11T13:57:20.098Z,14.03
2018-12-11T13:59:46.264Z,15.27
2018-12-11T14:02:12.486Z,12.20
2018-12-11T14:04:39.321Z,9.30
2018-12-11T14:07:05.391Z,9.90
2018-12-11T14:09:38.943Z,11.57
2018-12-11T14:12:05.207Z,12.97
2018-12-11T14:14:31.456Z,14.53
2018-12-11T14:16:57.710Z,12.20
2018-12-11T14:19:23.880Z,12.63
2018-12-11T14:21:50.106Z,15.23
2018-12-11T14:24:16.404Z,14.67
2018-12-11T14:26:42.552Z,13.50
2018-12-11T14:29:08.795Z,12.70
2018-12-11T14:31:36.037Z,14.97
2018-12-11T14:34:02.210Z,14.20
2018-12-11T14:36:28.122Z,17.57
2018-12-11T14:38:54.184Z,14.67
2018-12-11T14:41:20.347Z,17.33
2018-12-11T14:43:46.573Z,15.13
2018-12-11T14:46:12.838Z,13.70
2018-12-11T14:48:39.052Z,14.53
2018-12-11T14:51:05.253Z,16.50
2018-12-11T14:53:31.187Z,16.23
2018-12-11T14:55:57.334Z,16.57
2018-12-11T14:58:23.599Z,17.33
2018-12-11T15:00:49.783Z,26.27
2018-12-11T15:03:16.161Z,26.40
2018-12-11T15:05:42.299Z,21.77
2018-12-11T15:08:08.508Z,25.20
2018-12-11T15:10:34.696Z,22.87
2018-12-11T15:13:00.940Z,18.77
2018-12-11T15:15:27.210Z,19.73
2018-12-11T15:17:53.361Z,29.10
2018-12-11T15:20:19.271Z,27.63
2018-12-11T15:22:45.473Z,23.37
2018-12-11T15:25:11.632Z,24.97
2018-12-11T15:27:37.903Z,35.07
2018-12-11T15:30:04.281Z,27.47
2018-12-11T15:32:30.317Z,25.10
2018-12-11T15:34:56.219Z,22.07
2018-12-11T15:37:22.121Z,38.27
2018-12-11T15:39:48.200Z,36.17
2018-12-11T15:42:14.412Z,25.80
2018-12-11T15:44:40.697Z,30.60
2018-12-11T15:47:06.904Z,35.13
2018-12-11T15:49:33.108Z,34.07
2018-12-11T15:51:58.981Z,34.47
2018-12-11T15:54:25.248Z,30.90
2018-12-11T15:56:52.047Z,30.37
2018-12-11T15:59:18.071Z,25.77
2018-12-11T16:01:44.125Z,32.10
2018-12-11T16:04:10.056Z,29.83
2018-12-11T16:06:36.392Z,36.87
2018-12-11T16:09:07.015Z,34.13
2018-12-11T16:11:33.304Z,34.27
2018-12-11T16:13:59.552Z,31.20
2018-12-11T16:16:25.712Z,34.37
2018-12-11T16:18:52.749Z,39.20
2018-12-11T16:21:19.060Z,38.23
2018-12-11T16:23:45.685Z,39.23
2018-12-11T16:26:11.880Z,46.50
2018-12-11T16:28:38.152Z,38.00
2018-12-11T16:31:04.310Z,29.77
2018-12-11T16:33:30.548Z,35.67
2018-12-11T16:35:56.840Z,31.13
2018-12-11T16:38:23.031Z,38.77
2018-12-11T16:40:49.234Z,40.07
2018-12-11T16:43:15.526Z,36.57
2018-12-11T16:45:41.679Z,41.57
2018-12-11T16:48:07.950Z,35.10
2018-12-11T16:50:34.206Z,34.70
2018-12-11T16:53:00.402Z,42.97
2018-12-11T16:55:26.629Z,35.50
2018-12-11T16:57:52.859Z,40.27
2018-12-11T17:00:19.052Z,35.93
2018-12-11T17:02:45.338Z,37.33
2018-12-11T17:05:11.575Z,37.13
2018-12-11T17:07:37.740Z,33.23
2018-12-11T17:10:04.026Z,39.10
2018-12-11T17:12:30.514Z,35.60
2018-12-11T17:14:58.451Z,29.27
2018-12-11T17:17:24.734Z,33.70
2018-12-11T17:19:51.814Z,43.13
2018-12-11T17:22:17.989Z,40.23
2018-12-11T17:24:44.240Z,39.20
2018-12-11T17:27:10.498Z,38.57
2018-12-11T17:29:36.664Z,36.43
2018-12-11T17:32:02.910Z,35.27
2018-12-11T17:34:29.185Z,37.83
2018-12-11T17:36:55.155Z,41.70
2018-12-11T17:39:21.192Z,50.13
2018-12-11T17:41:47.459Z,48.07
2018-12-11T17:44:13.627Z,43.77
2018-12-11T17:46:39.900Z,46.83
2018-12-11T17:49:06.145Z,45.87
2018-12-11T17:51:32.369Z,39.57
2018-12-11T17:53:58.573Z,46.90
2018-12-11T17:56:25.670Z,49.10
2018-12-11T17:58:51.871Z,51.03
2018-12-11T18:01:18.691Z,50.97
2018-12-11T18:03:45.262Z,45.23
2018-12-11T18:06:11.341Z,49.73
2018-12-11T18:08:37.599Z,58.63
2018-12-11T18:11:03.837Z,79.83
2018-12-11T18:13:30.015Z,69.20
2018-12-11T18:15:56.270Z,64.00
2018-12-11T18:18:23.044Z,58.13
2018-12-11T18:20:49.153Z,54.47
2018-12-11T18:23:15.353Z,61.60
2018-12-11T18:25:41.791Z,70.97
2018-12-11T18:28:07.780Z,68.30
2018-12-11T18:30:34.052Z,54.43
2018-12-11T18:33:00.296Z,54.73
2018-12-11T18:35:26.584Z,49.07
2018-12-11T18:37:52.456Z,47.33
2018-12-11T18:40:19.111Z,47.87
2018-12-11T18:42:45.198Z,46.27
2018-12-11T18:45:11.432Z,59.23
2018-12-11T18:47:37.658Z,42.50
2018-12-11T18:50:04.188Z,57.13
2018-12-11T18:52:31.479Z,77.40
2018-12-11T18:54:58.024Z,54.37
2018-12-11T18:57:24.208Z,58.67
2018-12-11T18:59:50.404Z,58.67
2018-12-11T19:02:16.693Z,61.23
2018-12-11T19:04:42.850Z,58.13
2018-12-11T19:07:09.115Z,64.57
2018-12-11T19:09:35.721Z,78.13
2018-12-11T19:12:01.988Z,78.50
2018-12-11T19:14:28.212Z,72.83
2018-12-11T19:16:54.449Z,65.90
2018-12-11T19:19:20.649Z,65.33
2018-12-11T19:21:46.889Z,62.13
2018-12-11T19:24:13.370Z,72.00
2018-12-11T19:26:39.310Z,67.33
2018-12-11T19:29:05.561Z,65.47
2018-12-11T19:31:32.658Z,69.23
2018-12-11T19:33:58.820Z,67.17
2018-12-11T19:36:25.093Z,68.73
2018-12-11T19:38:51.392Z,80.17
2018-12-11T19:41:17.522Z,76.43
2018-12-11T19:43:43.742Z,75.23
2018-12-11T19:46:10.047Z,78.93
2018-12-11T19:48:36.331Z,71.93
2018-12-11T19:51:03.170Z,75.20
2018-12-11T19:53:29.536Z,66.73
2018-12-11T19:55:56.011Z,64.87
2018-12-11T19:58:22.003Z,69.23
2018-12-11T20:00:48.759Z,76.90
2018-12-11T20:03:14.980Z,85.83
2018-12-11T20:05:41.126Z,94.00
2018-12-11T20:08:08.261Z,95.13
2018-12-11T20:10:34.682Z,92.67
2018-12-11T20:13:01.078Z,100.23
2018-12-11T20:15:27.213Z,89.23
2018-12-11T20:17:53.673Z,89.90
2018-12-11T20:20:23.410Z,85.43
2018-12-11T20:22:49.565Z,89.17
2018-12-11T20:25:15.856Z,82.80
2018-12-11T20:27:42.001Z,84.20
2018-12-11T20:30:08.526Z,95.57
2018-12-11T20:32:34.854Z,89.90
2018-12-11T20:35:02.636Z,94.03
2018-12-11T20:37:30.165Z,107.57
2018-12-11T20:39:56.628Z,102.73
2018-12-11T20:42:22.955Z,120.00
2018-12-11T20:44:49.311Z,115.13
2018-12-11T20:47:16.394Z,116.43
2018-12-11T20:49:43.043Z,111.63
2018-12-11T20:52:09.473Z,111.17
2018-12-11T20:54:35.548Z,111.37
2018-12-11T20:57:02.398Z,124.77
2018-12-11T20:59:29.195Z,115.00
2018-12-11T21:01:55.750Z,113.80
2018-12-11T21:04:22.577Z,121.57
2018-12-11T21:06:52.081Z,127.23
2018-12-11T21:09:18.154Z,119.23
2018-12-11T21:11:44.595Z,132.83
2018-12-11T21:14:10.816Z,123.80
2018-12-11T21:16:37.082Z,125.47
2018-12-11T21:19:03.999Z,125.17
2018-12-11T21:21:30.463Z,127.43
2018-12-11T21:23:56.913Z,125.37
2018-12-11T21:26:23.169Z,119.90
2018-12-11T21:28:49.509Z,113.80
2018-12-11T21:31:15.388Z,123.07
2018-12-11T21:33:41.621Z,112.97
2018-12-11T21:36:08.312Z,118.43
2018-12-11T21:38:34.512Z,109.23
2018-12-11T21:41:00.732Z,112.90
2018-12-11T21:43:26.995Z,122.40
2018-12-11T21:45:53.191Z,122.37
2018-12-11T21:48:19.489Z,122.73
2018-12-11T21:50:45.711Z,134.23
2018-12-11T21:53:12.704Z,139.23
2018-12-11T21:55:38.922Z,130.20
2018-12-11T21:58:05.261Z,131.80
2018-12-11T22:00:31.411Z,151.63
2018-12-11T22:02:57.593Z,154.50
2018-12-11T22:05:23.866Z,156.53
2018-12-11T22:07:50.047Z,148.60
2018-12-11T22:10:16.339Z,160.73
2018-12-11T22:12:42.616Z,139.23
2018-12-11T22:15:08.826Z,168.00
2018-12-11T22:17:34.970Z,169.00
2018-12-11T22:20:01.270Z,161.73
2018-12-11T22:22:27.412Z,150.93
2018-12-11T22:24:53.660Z,176.80
2018-12-11T22:27:19.955Z,163.13
2018-12-11T22:29:46.974Z,173.70
2018-12-11T22:32:13.156Z,210.63
2018-12-11T22:34:39.434Z,191.20
2018-12-11T22:37:05.642Z,178.43
2018-12-11T22:39:31.854Z,181.37
2018-12-11T22:41:58.125Z,183.50
2018-12-11T22:44:24.338Z,186.93
2018-12-11T22:46:50.541Z,181.63
2018-12-11T22:49:16.828Z,191.60
2018-12-11T22:51:43.232Z,259.27
2018-12-11T22:54:09.506Z,200.87
2018-12-11T22:56:35.489Z,195.57
2018-12-11T22:59:01.672Z,179.53
2018-12-11T23:01:27.926Z,168.57
2018-12-11T23:03:54.195Z,174.63
2018-12-11T23:06:20.395Z,170.00
2018-12-11T23:08:46.644Z,177.37
2018-12-11T23:11:13.277Z,172.23
2018-12-11T23:13:39.448Z,166.43
2018-12-11T23:16:06.494Z,171.63
2018-12-11T23:18:32.850Z,168.53
2018-12-11T23:20:58.957Z,169.93
2018-12-11T23:23:25.188Z,169.23
2018-12-11T23:25:51.462Z,167.67
2018-12-11T23:28:17.703Z,167.33
2018-12-11T23:30:43.872Z,160.40
2018-12-11T23:33:10.278Z,169.17
2018-12-11T23:35:36.338Z,155.33
2018-12-11T23:38:02.224Z,163.43
2018-12-11T23:40:28.654Z,182.27
2018-12-11T23:42:54.717Z,154.70
2018-12-11T23:45:20.837Z,169.87
2018-12-11T23:47:47.545Z,152.67
2018-12-11T23:50:13.724Z,161.50
2018-12-11T23:52:39.943Z,162.90
2018-12-11T23:55:06.421Z,148.10
2018-12-11T23:57:32.397Z,142.30
2018-12-11T23:59:58.620Z,135.03
